Time;durP1;ratioP1;P1;durP2;ratioP2;P2;SDS_P1;SDS_P2;PMS_P1;PMS_P2;Temp;Humidity;BMP_temperature;BMP_pressure;BME280_temperature;BME280_humidity;BME280_pressure;Samples;Min_cycle;Max_cycle;Signal;HPM_P1;HPM_P2
2019/04/19 00:02:17;;;;;;;9.3;6.5;;;;;;;9.54;64.41797;945.5474;;;;
2019/04/19 00:04:41;;;;;;;9.1;6.3;;;;;;;9.81;63.72852;945.5179;;;;
2019/04/19 00:07:06;;;;;;;9.7;6.3;;;;;;;9.74;64.24219;945.5613;;;;
2019/04/19 00:09:31;;;;;;;10.5;6.4;;;;;;;9.52;64.79004;945.5237;;;;
2019/04/19 00:11:58;;;;;;;8.8;6;;;;;;;9.76;63.9502;945.5468;;;;
2019/04/19 00:14:22;;;;;;;8.1;5.7;;;;;;;9.68;63.53809;945.4818;;;;
2019/04/19 00:16:47;;;;;;;7.9;5.6;;;;;;;9.35;64.96875;945.5159;;;;
2019/04/19 00:19:14;;;;;;;12.3;6.3;;;;;;;9.47;64.91992;945.5147;;;;
2019/04/19 00:21:39;;;;;;;7.4;5.6;;;;;;;9.71;63.76074;945.5042;;;;
2019/04/19 00:24:06;;;;;;;8;5.8;;;;;;;9.65;63.8418;945.509;;;;
2019/04/19 00:26:32;;;;;;;11.5;5.9;;;;;;;9.66;63.69434;945.5553;;;;
2019/04/19 00:29:01;;;;;;;7.8;5.6;;;;;;;9.52;63.84473;945.5324;;;;
2019/04/19 00:31:26;;;;;;;6.5;5.3;;;;;;;9.64;63.81738;945.5056;;;;
2019/04/19 00:33:51;;;;;;;8.7;5.8;;;;;;;9.85;63.18848;945.5229;;;;
2019/04/19 00:36:16;;;;;;;10.7;6.2;;;;;;;9.54;63.95117;945.5139;;;;
2019/04/19 00:38:44;;;;;;;8.6;6.3;;;;;;;9.38;64.65723;945.5344;;;;
2019/04/19 00:41:13;;;;;;;9.3;5.9;;;;;;;9.56;63.9873;945.4866;;;;
2019/04/19 00:43:43;;;;;;;7.9;5.8;;;;;;;9.54;64.32715;945.4838;;;;
2019/04/19 00:46:02;;;;;;;9.6;5.8;;;;;;;9.41;64.50195;945.5108;;;;
2019/04/19 00:48:26;;;;;;;8.8;5.8;;;;;;;9.51;64.25391;945.4313;;;;
2019/04/19 00:50:48;;;;;;;7.4;5.9;;;;;;;9.37;64.5957;945.4847;;;;
2019/04/19 00:53:14;;;;;;;11.8;6.2;;;;;;;9.36;64.43652;945.4384;;;;
2019/04/19 00:55:39;;;;;;;9.4;6.2;;;;;;;9.4;64.29492;945.4522;;;;
2019/04/19 00:58:04;;;;;;;8.6;5.7;;;;;;;9.33;64.18066;945.4581;;;;
2019/04/19 01:00:32;;;;;;;8.5;5.8;;;;;;;9.11;65.19531;945.4705;;;;
2019/04/19 01:02:55;;;;;;;14.2;6;;;;;;;9.16;64.93066;945.4919;;;;
2019/04/19 01:05:21;;;;;;;9;6.2;;;;;;;8.96;65.86719;945.3925;;;;
2019/04/19 01:07:47;;;;;;;8.7;5.9;;;;;;;8.73;67.21875;945.4486;;;;
2019/04/19 01:10:14;;;;;;;8.8;6.3;;;;;;;8.93;66.51172;945.4966;;;;
2019/04/19 01:12:39;;;;;;;8.8;6.3;;;;;;;9.04;65.83301;945.4678;;;;
2019/04/19 01:15:04;;;;;;;10;6.4;;;;;;;9.17;65.22656;945.5212;;;;
2019/04/19 01:17:30;;;;;;;10.2;6.4;;;;;;;9.04;65.74316;945.5522;;;;
2019/04/19 01:19:55;;;;;;;11.4;6.5;;;;;;;9.25;65.0918;945.6167;;;;
2019/04/19 01:22:24;;;;;;;10.7;6.6;;;;;;;9.17;65.11426;945.6437;;;;
2019/04/19 01:24:52;;;;;;;9;6.3;;;;;;;8.89;65.98145;945.5422;;;;
2019/04/19 01:27:16;;;;;;;9.5;6.2;;;;;;;8.43;67.85352;945.5597;;;;
2019/04/19 01:29:41;;;;;;;12.4;6.9;;;;;;;8.16;69.01465;945.634;;;;
2019/04/19 01:32:06;;;;;;;8.6;6.4;;;;;;;8.19;68.80371;945.5215;;;;
2019/04/19 01:34:33;;;;;;;10.2;6.5;;;;;;;8.75;66.84668;945.5022;;;;
2019/04/19 01:36:58;;;;;;;8.5;6.8;;;;;;;8.97;65.83496;945.5786;;;;
2019/04/19 01:39:23;;;;;;;8.4;6.4;;;;;;;8.62;67.07715;945.5883;;;;
2019/04/19 01:41:48;;;;;;;9.7;6.6;;;;;;;8.65;66.89941;945.59;;;;
2019/04/19 01:44:17;;;;;;;10.4;6.4;;;;;;;7.97;69.45996;945.6057;;;;
2019/04/19 01:46:53;;;;;;;8.9;5.9;;;;;;;7.68;70.63965;945.6131;;;;
2019/04/19 01:49:07;;;;;;;9.8;6.2;;;;;;;7.98;69.75879;945.507;;;;
2019/04/19 01:51:49;;;;;;;7.3;5.9;;;;;;;7.74;70.50098;945.5966;;;;
2019/04/19 01:56:21;;;;;;;9.8;6.2;;;;;;;8.35;69.375;945.6292;;;;
2019/04/19 01:58:50;;;;;;;8.4;6.3;;;;;;;8.42;68.20508;945.6156;;;;
2019/04/19 02:01:12;;;;;;;8.9;6;;;;;;;8.28;68.39941;945.6506;;;;
2019/04/19 02:03:37;;;;;;;8.2;6.1;;;;;;;8.24;68.73242;945.6581;;;;
2019/04/19 02:06:10;;;;;;;8;6.6;;;;;;;8.03;69.30078;945.6984;;;;
2019/04/19 02:08:37;;;;;;;11;6.5;;;;;;;8.1;69.41504;945.7188;;;;
2019/04/19 02:11:17;;;;;;;8.9;6.7;;;;;;;8.53;67.66504;945.6833;;;;
2019/04/19 02:13:48;;;;;;;7.5;6;;;;;;;8.51;67.45801;945.7017;;;;
2019/04/19 02:16:19;;;;;;;8.4;6.5;;;;;;;8.43;67.81934;945.6486;;;;
2019/04/19 02:18:41;;;;;;;10.8;7.1;;;;;;;8.49;68.37402;945.6232;;;;
2019/04/19 02:21:07;;;;;;;6.8;6;;;;;;;8.27;68.14648;945.6512;;;;
2019/04/19 02:23:33;;;;;;;10.2;6.5;;;;;;;7.73;70.34082;945.6945;;;;
2019/04/19 02:26:02;;;;;;;8.1;6.5;;;;;;;7.84;70.24609;945.6653;;;;
2019/04/19 02:28:50;;;;;;;7.3;6.3;;;;;;;7.93;69.84082;945.7053;;;;
2019/04/19 02:31:25;;;;;;;7.4;6.2;;;;;;;8.06;69.27148;945.7683;;;;
2019/04/19 02:33:50;;;;;;;7.5;6.4;;;;;;;7.98;69.02148;945.7441;;;;
2019/04/19 02:36:15;;;;;;;9.7;6.4;;;;;;;8.06;68.95313;945.7001;;;;
2019/04/19 02:38:40;;;;;;;10.6;6.6;;;;;;;8.24;68.00586;945.6708;;;;
2019/04/19 02:41:06;;;;;;;9.7;6.8;;;;;;;8.35;67.5;945.7307;;;;
2019/04/19 02:43:33;;;;;;;9.8;6.9;;;;;;;8.62;66.56543;945.7615;;;;
2019/04/19 02:45:56;;;;;;;11.6;7.1;;;;;;;8.41;67.5332;945.777;;;;
2019/04/19 02:48:22;;;;;;;9.5;6.8;;;;;;;8.42;67.34082;945.802;;;;
2019/04/19 02:50:47;;;;;;;10.2;6.9;;;;;;;8.43;67.04688;945.8264;;;;
2019/04/19 02:53:12;;;;;;;9;7;;;;;;;8.42;67.01172;945.8187;;;;
2019/04/19 02:55:59;;;;;;;10.1;6.8;;;;;;;8.32;67.34863;945.8296;;;;
2019/04/19 02:58:12;;;;;;;9.1;7;;;;;;;8.4;66.85938;945.875;;;;
2019/04/19 03:00:33;;;;;;;8.4;6.3;;;;;;;8.05;68.06641;945.883;;;;
2019/04/19 03:02:55;;;;;;;9.3;6.4;;;;;;;7.85;69.31543;945.8976;;;;
2019/04/19 03:05:19;;;;;;;7.8;6.3;;;;;;;7.87;69.53711;945.9208;;;;
2019/04/19 03:07:45;;;;;;;7.9;6.4;;;;;;;8.03;69.22168;945.9308;;;;
2019/04/19 03:10:10;;;;;;;8.4;6.5;;;;;;;7.59;70.61328;945.8477;;;;
2019/04/19 03:12:35;;;;;;;10.3;6.7;;;;;;;7.85;69.40625;945.8976;;;;
2019/04/19 03:15:00;;;;;;;8.1;6.6;;;;;;;7.51;70.89258;945.8622;;;;
2019/04/19 03:17:26;;;;;;;10;7.3;;;;;;;7.4;71.45508;945.8781;;;;
2019/04/19 03:19:51;;;;;;;8.7;6.5;;;;;;;7.55;70.90234;945.9731;;;;
2019/04/19 03:22:16;;;;;;;10.3;6.3;;;;;;;7.6;70.52344;946.008;;;;
2019/04/19 03:24:41;;;;;;;8.9;6.7;;;;;;;7.63;70.44922;945.9807;;;;
2019/04/19 03:27:09;;;;;;;7.7;6.8;;;;;;;7.66;70.48926;946.0374;;;;
2019/04/19 03:29:35;;;;;;;9.3;7.2;;;;;;;7.54;70.66113;946.0164;;;;
2019/04/19 03:32:00;;;;;;;10;6.7;;;;;;;7.63;70.40332;946.0822;;;;
2019/04/19 03:34:25;;;;;;;9.5;7.1;;;;;;;7.94;69.02344;946.0728;;;;
2019/04/19 03:36:50;;;;;;;9.2;7;;;;;;;7.78;69.58887;946.0419;;;;
2019/04/19 03:39:16;;;;;;;8.6;6.5;;;;;;;7.21;71.70605;946.0223;;;;
2019/04/19 03:44:25;;;;;;;10.6;6.6;;;;;;;7.3;71.66504;946.092;;;;
2019/04/19 03:46:40;;;;;;;10.4;6.9;;;;;;;7.13;72.29297;946.2047;;;;
2019/04/19 03:49:05;;;;;;;10.3;7.5;;;;;;;6.9;73.21777;946.2327;;;;
2019/04/19 03:51:32;;;;;;;15;7.6;;;;;;;6.94;72.77051;946.1627;;;;
2019/04/19 03:53:56;;;;;;;12.6;7.4;;;;;;;7.09;72.52539;946.2372;;;;
2019/04/19 03:56:23;;;;;;;9.7;6.6;;;;;;;6.99;73.01758;946.2137;;;;
2019/04/19 03:58:49;;;;;;;8.6;6.9;;;;;;;7.37;71.21094;946.2352;;;;
2019/04/19 04:02:40;;;;;;;12.2;7.7;;;;;;;7.13;72.00977;946.2894;;;;
2019/04/19 04:05:05;;;;;;;9.9;7.3;;;;;;;6.84;73.50098;946.3295;;;;
2019/04/19 04:07:37;;;;;;;9.4;7.6;;;;;;;7.07;72.36133;946.3655;;;;
2019/04/19 04:12:31;;;;;;;10;7.3;;;;;;;7.16;72.08203;946.3506;;;;
2019/04/19 04:17:20;;;;;;;12;9;;;;;;;6.75;73.00879;946.3739;;;;
2019/04/19 04:19:44;;;;;;;19;9;;;;;;;6.56;73.96191;946.4872;;;;
2019/04/19 04:22:10;;;;;;;14.6;8;;;;;;;7.14;71.93262;946.3901;;;;
2019/04/19 04:24:35;;;;;;;11.5;7.6;;;;;;;7.39;70.7041;946.407;;;;
2019/04/19 04:27:00;;;;;;;12.5;7.3;;;;;;;6.94;72.38574;946.4875;;;;
2019/04/19 04:29:26;;;;;;;9.3;7.3;;;;;;;6.64;73.89648;946.4611;;;;
2019/04/19 04:31:52;;;;;;;11.7;7.4;;;;;;;6.73;73.78809;946.5355;;;;
2019/04/19 04:34:17;;;;;;;9.6;7.5;;;;;;;6.9;73.25;946.5666;;;;
2019/04/19 04:36:42;;;;;;;10;7.3;;;;;;;7.19;71.96387;946.5513;;;;
2019/04/19 04:39:09;;;;;;;8.5;7.1;;;;;;;7.34;70.95801;946.5284;;;;
2019/04/19 04:41:34;;;;;;;9.2;6.7;;;;;;;7.39;70.79688;946.5333;;;;
2019/04/19 04:43:59;;;;;;;9.2;7;;;;;;;7.59;69.95508;946.6172;;;;
2019/04/19 04:47:15;;;;;;;11.6;6.9;;;;;;;7.1;71.93555;946.7349;;;;
2019/04/19 04:48:55;;;;;;;9;6.5;;;;;;;7.24;71.40527;946.6372;;;;
2019/04/19 04:53:53;;;;;;;9.9;7.1;;;;;;;7.65;69.90918;946.6933;;;;
2019/04/19 04:56:25;;;;;;;12.2;7.7;;;;;;;7.3;70.82617;946.7723;;;;
2019/04/19 04:59:02;;;;;;;9.3;7.4;;;;;;;7.43;70.63184;946.6917;;;;
2019/04/19 05:01:47;;;;;;;11.7;7.4;;;;;;;7.44;70.67969;946.7541;;;;
2019/04/19 05:04:25;;;;;;;8.8;7.1;;;;;;;7.12;71.80469;946.7755;;;;
2019/04/19 05:06:50;;;;;;;12.1;8.9;;;;;;;7.42;70.82422;946.8611;;;;
2019/04/19 05:09:31;;;;;;;11.8;8.4;;;;;;;7.54;70.42383;946.8613;;;;
2019/04/19 05:12:08;;;;;;;11.3;8.3;;;;;;;7.56;70.22168;946.9069;;;;
2019/04/19 05:14:33;;;;;;;12.4;9;;;;;;;7.58;70.55469;947.0022;;;;
2019/04/19 05:17:02;;;;;;;14.4;10.3;;;;;;;7.41;70.77637;947.0183;;;;
2019/04/19 05:19:27;;;;;;;14.3;10.7;;;;;;;7.35;71.26465;946.9334;;;;
2019/04/19 05:21:52;;;;;;;12.5;8.4;;;;;;;7.21;71.8877;946.9682;;;;
2019/04/19 05:24:20;;;;;;;16.8;10.9;;;;;;;7.04;72.73145;947.0259;;;;
2019/04/19 05:26:42;;;;;;;17.3;11.9;;;;;;;7.41;71.62598;947.0438;;;;
2019/04/19 05:29:07;;;;;;;18.9;12;;;;;;;7.66;70.87402;946.9464;;;;
2019/04/19 05:31:33;;;;;;;16;11;;;;;;;8.03;69.16309;947.0734;;;;
2019/04/19 05:33:58;;;;;;;12.7;8.3;;;;;;;8.49;67.6709;947.0323;;;;
2019/04/19 05:36:26;;;;;;;15.2;8.4;;;;;;;9.75;64.19824;947.0709;;;;
2019/04/19 05:38:57;;;;;;;11.1;7.2;;;;;;;11.17;59.29785;946.9542;;;;
2019/04/19 05:41:17;;;;;;;8.4;6.7;;;;;;;12.52;54.50488;946.9127;;;;
2019/04/19 05:43:50;;;;;;;7.5;5.7;;;;;;;13.73;50.0791;946.9105;;;;
2019/04/19 05:46:06;;;;;;;8.1;5.4;;;;;;;14.11;48.75293;946.8582;;;;
2019/04/19 05:48:31;;;;;;;9.4;5.1;;;;;;;14.31;47.68066;946.9763;;;;
2019/04/19 05:50:56;;;;;;;6.3;4.8;;;;;;;14.91;46.44434;946.9102;;;;
2019/04/19 05:53:22;;;;;;;8.6;5.5;;;;;;;15.46;45.23242;946.976;;;;
2019/04/19 05:55:47;;;;;;;7.7;4.9;;;;;;;16.16;42.875;946.9665;;;;
2019/04/19 05:58:12;;;;;;;10.1;6;;;;;;;16.4;41.75391;946.9455;;;;
2019/04/19 06:00:37;;;;;;;10;6.8;;;;;;;16.02;43.08105;947.002;;;;
2019/04/19 06:03:03;;;;;;;11.1;6.5;;;;;;;15.31;45.61914;946.9828;;;;
2019/04/19 06:05:28;;;;;;;11.4;7.6;;;;;;;15.84;43.57227;946.9686;;;;
2019/04/19 06:07:53;;;;;;;12.2;8;;;;;;;15.8;43.97363;947.0364;;;;
2019/04/19 06:10:18;;;;;;;11.4;7.8;;;;;;;16.18;43.14355;947.0156;;;;
2019/04/19 06:12:44;;;;;;;13;6.4;;;;;;;16.64;41.40625;947.0064;;;;
2019/04/19 06:15:09;;;;;;;9.6;5;;;;;;;17.82;38.18457;947.0496;;;;
2019/04/19 06:17:38;;;;;;;10.5;5.2;;;;;;;18.26;37.08398;947.0014;;;;
2019/04/19 06:20:00;;;;;;;6.7;4.6;;;;;;;18;37.73633;946.9562;;;;
2019/04/19 06:22:26;;;;;;;7.7;4.3;;;;;;;19.09;34.52246;946.96;;;;
2019/04/19 06:24:51;;;;;;;6.1;4.2;;;;;;;19.48;33.7373;946.9801;;;;
2019/04/19 06:27:16;;;;;;;6.9;4.3;;;;;;;19.84;33.18164;946.9727;;;;
2019/04/19 06:29:41;;;;;;;7.3;4.1;;;;;;;20.31;32.82031;946.9736;;;;
2019/04/19 06:32:06;;;;;;;7;4.2;;;;;;;20.98;33.13867;946.9409;;;;
2019/04/19 06:34:33;;;;;;;5;3.9;;;;;;;21.74;31.49707;946.9391;;;;
2019/04/19 06:37:00;;;;;;;8.2;4.2;;;;;;;21.7;30.31152;946.926;;;;
2019/04/19 06:39:23;;;;;;;6.1;4.3;;;;;;;21.73;30.52441;947.0309;;;;
2019/04/19 06:41:48;;;;;;;4.5;3.9;;;;;;;21.62;31.39551;946.9572;;;;
2019/04/19 06:44:13;;;;;;;5.9;3.7;;;;;;;21.12;31.58203;946.9931;;;;
2019/04/19 06:46:38;;;;;;;7.6;3.7;;;;;;;21.65;29.78125;946.9666;;;;
2019/04/19 06:49:15;;;;;;;5.1;4.1;;;;;;;21.32;30.68262;946.8744;;;;
2019/04/19 06:51:40;;;;;;;4.5;3.6;;;;;;;21.3;29.24316;946.9152;;;;
2019/04/19 06:54:05;;;;;;;8.3;4.2;;;;;;;21.49;29.79395;946.8957;;;;
2019/04/19 06:56:30;;;;;;;4.3;3.5;;;;;;;21.37;30.5459;946.9456;;;;
2019/04/19 06:58:55;;;;;;;4.2;3.6;;;;;;;21.46;29.15918;946.9174;;;;
2019/04/19 07:01:23;;;;;;;4.5;3.3;;;;;;;21.57;30.06836;946.9599;;;;
2019/04/19 07:03:48;;;;;;;5.4;3.4;;;;;;;21.3;29.64063;946.976;;;;
2019/04/19 07:06:11;;;;;;;5.7;3.2;;;;;;;21.72;30.41797;946.9241;;;;
2019/04/19 07:08:36;;;;;;;6.6;3.3;;;;;;;20.96;30.96289;946.9517;;;;
2019/04/19 07:11:01;;;;;;;7;3.1;;;;;;;21.95;29.23926;946.9074;;;;
2019/04/19 07:13:28;;;;;;;4.6;2.9;;;;;;;22.79;26.22949;946.9567;;;;
2019/04/19 07:15:55;;;;;;;3.9;3.1;;;;;;;23.57;25.71094;946.9119;;;;
2019/04/19 07:18:16;;;;;;;4.6;3.2;;;;;;;23.2;27.59375;946.9686;;;;
2019/04/19 07:20:41;;;;;;;4.5;3;;;;;;;22.27;28.82617;946.8934;;;;
2019/04/19 07:23:07;;;;;;;6.5;3;;;;;;;21.76;27.59863;946.8923;;;;
2019/04/19 07:25:32;;;;;;;5.3;3.1;;;;;;;20.76;29.99023;946.9199;;;;
2019/04/19 07:27:57;;;;;;;5.5;3.2;;;;;;;20.9;30.6543;946.9423;;;;
2019/04/19 07:30:22;;;;;;;5;3.2;;;;;;;22.3;27.34961;946.8904;;;;
2019/04/19 07:32:47;;;;;;;5.4;3.2;;;;;;;21.7;27.61816;946.952;;;;
2019/04/19 07:35:14;;;;;;;5;2.9;;;;;;;23.94;25.41504;947.0144;;;;
2019/04/19 07:37:39;;;;;;;6.3;3;;;;;;;25.13;22.30664;946.9324;;;;
2019/04/19 07:40:04;;;;;;;3.3;2.6;;;;;;;24.42;21.78906;946.8937;;;;
2019/04/19 07:42:30;;;;;;;4.2;3;;;;;;;24.03;22.42871;946.9339;;;;
2019/04/19 07:44:59;;;;;;;4.2;2.8;;;;;;;23.86;24.38574;946.9436;;;;
2019/04/19 07:47:33;;;;;;;3.9;2.7;;;;;;;24.82;21.63086;946.8997;;;;
2019/04/19 07:49:46;;;;;;;3.8;2.4;;;;;;;24.8;21.83105;946.959;;;;
2019/04/19 07:52:11;;;;;;;4.6;2.6;;;;;;;25.8;21.70215;946.96;;;;
2019/04/19 07:54:36;;;;;;;3.6;2.3;;;;;;;25.57;19.0918;946.8926;;;;
2019/04/19 07:57:01;;;;;;;5;2.6;;;;;;;26.85;18.7793;947.0067;;;;
2019/04/19 07:59:29;;;;;;;3;2.6;;;;;;;27.57;17.55176;946.9867;;;;
2019/04/19 08:01:54;;;;;;;3.7;2.5;;;;;;;26.15;20.87891;946.9233;;;;
2019/04/19 08:04:32;;;;;;;4.2;2.3;;;;;;;25.01;21.52246;946.9571;;;;
2019/04/19 08:06:58;;;;;;;3.5;2.5;;;;;;;23.32;23.54492;946.9578;;;;
2019/04/19 08:09:24;;;;;;;3.3;2.5;;;;;;;22.83;24.31836;946.9785;;;;
2019/04/19 08:11:49;;;;;;;4;2.5;;;;;;;23.18;24.73633;946.9546;;;;
2019/04/19 08:14:15;;;;;;;3.5;2.6;;;;;;;22.66;25.79883;947.0345;;;;
2019/04/19 08:16:40;;;;;;;3.7;2.5;;;;;;;24.79;23.11523;946.9572;;;;
2019/04/19 08:19:06;;;;;;;4.5;2.5;;;;;;;24.09;20.85352;946.9991;;;;
2019/04/19 08:21:31;;;;;;;3.5;2.3;;;;;;;26.02;19.56055;947.0201;;;;
2019/04/19 08:23:56;;;;;;;2.8;2.3;;;;;;;25.63;20.28809;946.9575;;;;
2019/04/19 08:26:21;;;;;;;5.1;2.6;;;;;;;27.53;17.76367;946.9846;;;;
2019/04/19 08:28:52;;;;;;;2.8;2.3;;;;;;;26.65;18.73535;946.948;;;;
2019/04/19 08:31:17;;;;;;;3.4;2.1;;;;;;;26.25;19.53516;946.9615;;;;
2019/04/19 08:33:45;;;;;;;3.3;2.3;;;;;;;25.37;20.16992;946.9595;;;;
2019/04/19 08:36:11;;;;;;;3.1;2.2;;;;;;;24.68;21.98926;946.9589;;;;
2019/04/19 08:38:41;;;;;;;5.4;2;;;;;;;23.91;21.50488;946.9545;;;;
2019/04/19 08:41:06;;;;;;;5.1;2.8;;;;;;;23.34;23.59375;947.0157;;;;
2019/04/19 08:43:31;;;;;;;2.5;2.2;;;;;;;24.69;21.74316;946.9709;;;;
2019/04/19 08:49:16;;;;;;;3.7;2.3;;;;;;;25.37;21.69336;947.0027;;;;
2019/04/19 08:53:50;;;;;;;2.3;2.1;;;;;;;27.52;17.02734;946.9867;;;;
2019/04/19 08:56:15;;;;;;;5.6;2.3;;;;;;;27.61;16.17578;946.9377;;;;
2019/04/19 08:58:40;;;;;;;4;2.3;;;;;;;24.83;20.68848;946.912;;;;
2019/04/19 09:01:07;;;;;;;6.8;1.9;;;;;;;24.82;20.22754;946.9258;;;;
2019/04/19 09:03:32;;;;;;;3.5;2.2;;;;;;;27.01;18.35938;946.9692;;;;
2019/04/19 09:05:59;;;;;;;2.7;2.2;;;;;;;28.44;19.52344;947.0323;;;;
2019/04/19 09:08:24;;;;;;;2.7;2.3;;;;;;;28.54;18.05273;946.9069;;;;
2019/04/19 09:10:49;;;;;;;3.8;2;;;;;;;27.08;18.25586;946.9503;;;;
2019/04/19 09:13:14;;;;;;;3.7;2.2;;;;;;;28.58;16.94824;946.8839;;;;
2019/04/19 09:15:39;;;;;;;6.1;2.7;;;;;;;27.84;16.84961;946.9383;;;;
2019/04/19 09:18:04;;;;;;;4.2;2.2;;;;;;;27.68;16.68848;946.8625;;;;
2019/04/19 09:20:32;;;;;;;4.4;2.2;;;;;;;28.02;17.10547;946.8986;;;;
2019/04/19 09:22:54;;;;;;;3.5;2.5;;;;;;;27.76;15.70703;946.8499;;;;
2019/04/19 09:25:56;;;;;;;4.5;2.4;;;;;;;26.5;18.06641;946.8603;;;;
2019/04/19 09:27:45;;;;;;;4.7;2.2;;;;;;;26.63;17.07715;946.8325;;;;
2019/04/19 09:30:10;;;;;;;3.5;2.1;;;;;;;26.74;17.31738;946.8129;;;;
2019/04/19 09:32:36;;;;;;;2.7;2;;;;;;;26.11;18.90234;946.8817;;;;
2019/04/19 09:35:02;;;;;;;3.4;1.9;;;;;;;25.95;17.68945;946.8562;;;;
2019/04/19 09:37:27;;;;;;;4.7;1.9;;;;;;;26.19;15.09668;946.8082;;;;
2019/04/19 09:39:52;;;;;;;3.8;2.1;;;;;;;25.87;19.09277;946.8159;;;;
2019/04/19 09:42:17;;;;;;;2.7;1.9;;;;;;;25.69;15.2207;946.7675;;;;
2019/04/19 09:44:42;;;;;;;2.8;1.9;;;;;;;26.15;17.59082;946.7847;;;;
2019/04/19 09:47:07;;;;;;;2.7;1.9;;;;;;;27.55;15.43848;946.7978;;;;
2019/04/19 09:49:32;;;;;;;3.5;1.8;;;;;;;28.51;13.83008;946.7936;;;;
2019/04/19 09:51:57;;;;;;;1.9;1.7;;;;;;;27.83;14.71191;946.7612;;;;
2019/04/19 09:54:23;;;;;;;2.4;2;;;;;;;27.29;14.52832;946.6674;;;;
2019/04/19 09:56:48;;;;;;;4;2.1;;;;;;;26.81;15.74414;946.6328;;;;
2019/04/19 09:59:13;;;;;;;2.6;2;;;;;;;27.35;16.61719;946.7236;;;;
2019/04/19 10:01:38;;;;;;;2.7;1.8;;;;;;;27.14;17.22656;946.7017;;;;
2019/04/19 10:04:16;;;;;;;3;2;;;;;;;27.89;15.81836;946.6563;;;;
2019/04/19 10:06:47;;;;;;;3;1.8;;;;;;;28.88;14.88867;946.6013;;;;
2019/04/19 10:09:17;;;;;;;2.2;1.6;;;;;;;29.23;15.19824;946.5872;;;;
2019/04/19 10:11:42;;;;;;;4.2;1.9;;;;;;;28.42;14.3623;946.6632;;;;
2019/04/19 10:14:08;;;;;;;4.7;2.1;;;;;;;29.45;15.43262;946.5964;;;;
2019/04/19 10:16:50;;;;;;;3.7;2.1;;;;;;;28.9;14.40137;946.5938;;;;
2019/04/19 10:19:01;;;;;;;4.5;2.1;;;;;;;28.14;15.04297;946.6181;;;;
2019/04/19 10:21:42;;;;;;;2.2;1.8;;;;;;;28.05;14.31543;946.606;;;;
2019/04/19 10:23:51;;;;;;;2.6;1.8;;;;;;;28.39;13.43359;946.6206;;;;
2019/04/19 10:26:34;;;;;;;3.5;1.8;;;;;;;26.46;15.19922;946.6096;;;;
2019/04/19 10:28:59;;;;;;;3.1;1.8;;;;;;;27;16.37891;946.5659;;;;
2019/04/19 10:31:34;;;;;;;3.1;1.9;;;;;;;28.41;15.08789;946.617;;;;
2019/04/19 10:33:49;;;;;;;4;1.7;;;;;;;29.32;13.90234;946.5428;;;;
2019/04/19 10:36:15;;;;;;;3;1.7;;;;;;;30.47;14.5;946.5048;;;;
2019/04/19 10:38:40;;;;;;;2.4;1.8;;;;;;;28.55;13.46289;946.5438;;;;
2019/04/19 10:41:05;;;;;;;2.9;1.7;;;;;;;27.37;14.7207;946.5671;;;;
2019/04/19 10:43:30;;;;;;;2.4;1.8;;;;;;;26.72;16.68945;946.462;;;;
2019/04/19 10:45:55;;;;;;;3.4;2;;;;;;;25.16;18.23633;946.5748;;;;
2019/04/19 10:48:21;;;;;;;2.4;1.9;;;;;;;26.3;16.56738;946.4846;;;;
2019/04/19 10:50:51;;;;;;;3.5;2.1;;;;;;;27.44;16.4668;946.5491;;;;
2019/04/19 10:53:11;;;;;;;3;2;;;;;;;26.5;15.48535;946.5517;;;;
2019/04/19 10:55:39;;;;;;;2.6;1.9;;;;;;;27.04;14.79297;946.5475;;;;
2019/04/19 10:58:08;;;;;;;4.4;2;;;;;;;26.93;14.70605;946.4791;;;;
2019/04/19 11:00:37;;;;;;;3.2;1.9;;;;;;;27.09;14.08301;946.4389;;;;
2019/04/19 11:03:03;;;;;;;4.3;1.9;;;;;;;28.51;15.80469;946.5183;;;;
2019/04/19 11:05:30;;;;;;;3.4;2.2;;;;;;;28.56;14.06934;946.502;;;;
2019/04/19 11:07:58;;;;;;;3.8;2;;;;;;;29.11;15.26563;946.5002;;;;
2019/04/19 11:10:26;;;;;;;3.3;2.2;;;;;;;29.94;12.9082;946.5494;;;;
2019/04/19 11:12:51;;;;;;;2.1;1.8;;;;;;;29.21;12.85156;946.5159;;;;
2019/04/19 11:15:18;;;;;;;2.6;1.9;;;;;;;30.78;14.92773;946.5029;;;;
2019/04/19 11:17:43;;;;;;;4.1;1.9;;;;;;;30.38;12.02441;946.4353;;;;
2019/04/19 11:20:08;;;;;;;2.9;2.1;;;;;;;29.63;12.63672;946.4058;;;;
2019/04/19 11:22:34;;;;;;;5.9;2.2;;;;;;;30.45;12.08594;946.4547;;;;
2019/04/19 11:24:59;;;;;;;4;2.1;;;;;;;31.23;12.31055;946.4597;;;;
2019/04/19 11:27:28;;;;;;;2.6;1.9;;;;;;;33.52;11.80762;946.3922;;;;
2019/04/19 11:29:56;;;;;;;4.6;1.8;;;;;;;33.25;11.95703;946.375;;;;
2019/04/19 11:34:48;;;;;;;3.7;1.8;;;;;;;36;9.925781;946.4048;;;;
2019/04/19 11:37:11;;;;;;;3.4;1.8;;;;;;;36.88;10.22363;946.373;;;;
2019/04/19 11:39:35;;;;;;;3.3;1.9;;;;;;;33.06;10.81055;946.3328;;;;
2019/04/19 11:42:00;;;;;;;2.3;1.8;;;;;;;33.23;11.09082;946.3153;;;;
2019/04/19 11:44:29;;;;;;;2.6;2;;;;;;;31.55;11.0625;946.3725;;;;
2019/04/19 11:46:54;;;;;;;3.3;2.1;;;;;;;29.99;12.02637;946.3922;;;;
2019/04/19 11:49:19;;;;;;;2.2;1.8;;;;;;;29.81;14.15625;946.3254;;;;
2019/04/19 11:51:44;;;;;;;2.9;2.1;;;;;;;28.72;14.70508;946.3212;;;;
2019/04/19 11:54:21;;;;;;;5.1;1.8;;;;;;;29.53;13.80176;946.26;;;;
2019/04/19 11:56:51;;;;;;;2.8;1.8;;;;;;;30.69;11.97363;946.2798;;;;
2019/04/19 11:59:20;;;;;;;2.7;1.9;;;;;;;31.67;11.5918;946.2957;;;;
2019/04/19 12:01:41;;;;;;;2.8;1.9;;;;;;;32.96;11.30078;946.2349;;;;
2019/04/19 12:04:06;;;;;;;6.3;2.3;;;;;;;33.71;10.8623;946.3391;;;;
2019/04/19 12:06:31;;;;;;;2.6;1.7;;;;;;;32.41;10.87891;946.3957;;;;
2019/04/19 12:08:57;;;;;;;2.6;2.1;;;;;;;30.79;11.59375;946.2464;;;;
2019/04/19 12:11:22;;;;;;;4.2;2;;;;;;;32.53;11.38574;946.313;;;;
2019/04/19 12:13:53;;;;;;;2.4;1.8;;;;;;;32.07;10.17578;946.2888;;;;
2019/04/19 12:16:19;;;;;;;3.7;2;;;;;;;32.43;10.58008;946.277;;;;
2019/04/19 12:18:44;;;;;;;3.1;1.9;;;;;;;33.58;10.78711;946.2545;;;;
2019/04/19 12:21:09;;;;;;;2.5;1.8;;;;;;;33.91;9.916016;946.2556;;;;
2019/04/19 12:23:34;;;;;;;2.1;1.7;;;;;;;31.67;11.43652;946.2469;;;;
2019/04/19 12:25:59;;;;;;;2.8;1.9;;;;;;;31.56;10.83496;946.2738;;;;
2019/04/19 12:28:27;;;;;;;2.9;1.9;;;;;;;31.68;11.43652;946.1877;;;;
2019/04/19 12:30:52;;;;;;;2.3;1.8;;;;;;;31.88;11.83691;946.2206;;;;
2019/04/19 12:33:28;;;;;;;2.3;1.7;;;;;;;34.56;11.31641;946.2198;;;;
2019/04/19 12:35:53;;;;;;;1.9;1.7;;;;;;;33.48;10.25586;946.2244;;;;
2019/04/19 12:38:18;;;;;;;2.1;1.8;;;;;;;34.1;11.9668;946.2219;;;;
2019/04/19 12:40:49;;;;;;;2.5;1.7;;;;;;;35.7;10.25684;946.2645;;;;
2019/04/19 12:43:08;;;;;;;4.2;1.8;;;;;;;35.35;11.31152;946.2307;;;;
2019/04/19 12:45:33;;;;;;;3.2;1.8;;;;;;;33.19;11.82324;946.1992;;;;
2019/04/19 12:47:59;;;;;;;5.9;2;;;;;;;32.97;13.16211;946.137;;;;
2019/04/19 12:50:24;;;;;;;2.3;1.8;;;;;;;31.99;13.12207;946.105;;;;
2019/04/19 12:52:49;;;;;;;2.1;1.6;;;;;;;32.69;11.62988;946.0706;;;;
2019/04/19 12:55:17;;;;;;;2;1.7;;;;;;;32.79;10.62402;946.1445;;;;
2019/04/19 12:57:48;;;;;;;2.9;1.7;;;;;;;32.17;11.37695;946.0609;;;;
2019/04/19 13:00:12;;;;;;;2.5;1.6;;;;;;;30.3;14.08789;946.0242;;;;
2019/04/19 13:02:50;;;;;;;3;1.8;;;;;;;29.85;13.99023;945.9858;;;;
2019/04/19 13:07:29;;;;;;;31.1;2.8;;;;;;;28.74;14.46777;945.9766;;;;
2019/04/19 13:09:58;;;;;;;4.4;1.8;;;;;;;27.99;15.54883;945.9507;;;;
2019/04/19 13:12:20;;;;;;;2.5;1.9;;;;;;;27.99;15.08496;945.9166;;;;
2019/04/19 13:14:45;;;;;;;5.6;2;;;;;;;28.07;16.12109;945.8817;;;;
2019/04/19 13:17:10;;;;;;;4;1.9;;;;;;;27.97;16.65234;945.8848;;;;
2019/04/19 13:19:35;;;;;;;4.2;1.8;;;;;;;26.72;16.59375;945.9141;;;;
2019/04/19 13:22:00;;;;;;;3.8;1.9;;;;;;;26.51;17.59277;945.8304;;;;
2019/04/19 13:24:25;;;;;;;2.8;2;;;;;;;25.3;20.25;945.8292;;;;
2019/04/19 13:26:51;;;;;;;3.1;2;;;;;;;25.41;19.5459;945.7657;;;;
2019/04/19 13:29:16;;;;;;;3.2;1.7;;;;;;;25.38;18.74219;945.7661;;;;
2019/04/19 13:31:41;;;;;;;3.4;2;;;;;;;25.43;20.50391;945.7678;;;;
2019/04/19 13:34:06;;;;;;;5;1.9;;;;;;;24.55;19.49707;945.7505;;;;
2019/04/19 13:38:22;;;;;;;5;2;;;;;;;24.89;20.53711;945.7562;;;;
2019/04/19 13:39:11;;;;;;;3.3;2;;;;;;;25.42;18.38867;945.8219;;;;
2019/04/19 13:41:32;;;;;;;2.2;1.8;;;;;;;25.69;16.91016;945.7363;;;;
2019/04/19 13:43:47;;;;;;;5.1;1.7;;;;;;;25.82;17.70801;945.7556;;;;
2019/04/19 13:46:12;;;;;;;2.2;1.8;;;;;;;26.01;18.40039;945.7292;;;;
2019/04/19 13:48:37;;;;;;;4.1;1.9;;;;;;;25.97;17.38281;945.7126;;;;
2019/04/19 13:51:02;;;;;;;3.9;2.1;;;;;;;25.71;18.63672;945.6154;;;;
2019/04/19 13:53:27;;;;;;;3.7;2.2;;;;;;;25.55;21.70215;945.6459;;;;
2019/04/19 13:55:52;;;;;;;3.1;2.4;;;;;;;24.76;21.53418;945.5967;;;;
2019/04/19 13:58:18;;;;;;;2.4;2.2;;;;;;;24.29;26.71777;945.605;;;;
2019/04/19 14:00:46;;;;;;;3.5;2.1;;;;;;;24.47;24.25391;945.632;;;;
2019/04/19 14:03:08;;;;;;;5.1;1.9;;;;;;;24.41;21.96484;945.5971;;;;
2019/04/19 14:05:35;;;;;;;4.3;1.9;;;;;;;24.14;22.49316;945.6075;;;;
2019/04/19 14:07:58;;;;;;;4;2.3;;;;;;;24.15;21.08105;945.5673;;;;
2019/04/19 14:10:23;;;;;;;6.5;2.3;;;;;;;24.22;22.99219;945.5709;;;;
2019/04/19 14:12:48;;;;;;;5.4;2.4;;;;;;;24.38;24.21387;945.5963;;;;
2019/04/19 14:15:13;;;;;;;7.3;2.3;;;;;;;23.84;23.125;945.5189;;;;
2019/04/19 14:17:38;;;;;;;3.2;2.3;;;;;;;24.06;23.07813;945.597;;;;
2019/04/19 14:20:18;;;;;;;3.8;2.4;;;;;;;24.07;26.11621;945.5349;;;;
2019/04/19 14:22:46;;;;;;;4.4;2.3;;;;;;;;;;;;;
2019/04/19 14:25:09;;;;;;;3.4;2.1;;;;;;;;;;;;;
2019/04/19 14:27:34;;;;;;;4.6;2.2;;;;;;;;;;;;;
2019/04/19 14:29:59;;;;;;;2.5;2.3;;;;;;;;;;;;;
2019/04/19 14:32:26;;;;;;;2.2;2;;;;;;;;;;;;;
2019/04/19 14:34:51;;;;;;;3.1;2.2;;;;;;;;;;;;;
2019/04/19 14:37:16;;;;;;;4.4;2.4;;;;;;;;;;;;;
2019/04/19 14:39:41;;;;;;;7.1;2.2;;;;;;;;;;;;;
2019/04/19 14:42:07;;;;;;;4.6;2.3;;;;;;;;;;;;;
2019/04/19 14:44:32;;;;;;;5.9;2.3;;;;;;;;;;;;;
2019/04/19 14:46:57;;;;;;;4.8;2.6;;;;;;;;;;;;;
2019/04/19 14:49:24;;;;;;;4;2.3;;;;;;;;;;;;;
2019/04/19 14:51:49;;;;;;;3.1;2.3;;;;;;;;;;;;;
2019/04/19 14:54:14;;;;;;;3.7;2.2;;;;;;;;;;;;;
2019/04/19 14:56:39;;;;;;;5.4;2.6;;;;;;;;;;;;;
2019/04/19 14:59:07;;;;;;;8.2;2.8;;;;;;;;;;;;;
2019/04/19 15:01:50;;;;;;;7.1;2.5;;;;;;;;;;;;;